createdAt,value
2018-04-08T00:00:04.378Z,11.40
2018-04-08T00:02:31.927Z,11.40
2018-04-08T00:04:59.447Z,11.40
2018-04-08T00:07:27.001Z,11.40
2018-04-08T00:09:55.312Z,11.40
2018-04-08T00:12:22.830Z,11.40
2018-04-08T00:14:50.364Z,11.30
2018-04-08T00:17:18.231Z,11.40
2018-04-08T00:19:45.781Z,11.30
2018-04-08T00:22:14.901Z,11.20
2018-04-08T00:24:43.202Z,11.30
2018-04-08T00:27:10.749Z,11.30
2018-04-08T00:29:39.082Z,11.10
2018-04-08T00:32:06.721Z,11.10
2018-04-08T00:34:34.229Z,11.10
2018-04-08T00:37:01.745Z,11.10
2018-04-08T00:39:29.291Z,11.10
2018-04-08T00:41:56.828Z,11.10
2018-04-08T00:44:24.347Z,11.10
2018-04-08T00:46:51.873Z,11.10
2018-04-08T00:49:19.444Z,11.10
2018-04-08T00:51:46.956Z,11.10
2018-04-08T00:54:27.081Z,11.20
2018-04-08T00:56:54.620Z,11.20
2018-04-08T00:59:22.178Z,11.20
2018-04-08T01:01:50.453Z,11.20
2018-04-08T01:04:17.992Z,11.20
2018-04-08T01:06:45.521Z,11.10
2018-04-08T01:09:13.066Z,11.10
2018-04-08T01:11:41.349Z,11.10
2018-04-08T01:14:09.628Z,11.10
2018-04-08T01:16:37.943Z,11.10
2018-04-08T01:19:05.486Z,11.10
2018-04-08T01:21:33.014Z,11.10
2018-04-08T01:24:01.321Z,11.10
2018-04-08T01:26:28.850Z,11.10
2018-04-08T01:28:56.369Z,11.10
2018-04-08T01:31:23.914Z,11.10
2018-04-08T01:33:51.428Z,11.10
2018-04-08T01:36:18.950Z,11.00
2018-04-08T01:38:46.523Z,11.00
2018-04-08T01:41:15.552Z,11.00
2018-04-08T01:43:43.073Z,10.90
2018-04-08T01:46:10.587Z,10.90
2018-04-08T01:48:38.101Z,11.00
2018-04-08T01:51:06.376Z,11.00
2018-04-08T01:53:34.687Z,11.00
2018-04-08T01:56:02.220Z,11.00
2018-04-08T01:58:29.741Z,11.00
2018-04-08T02:00:57.306Z,11.00
2018-04-08T02:03:24.844Z,11.00
2018-04-08T02:05:52.355Z,11.00
2018-04-08T02:08:20.658Z,11.00
2018-04-08T02:10:48.167Z,11.00
2018-04-08T02:13:15.673Z,11.00
2018-04-08T02:15:43.215Z,11.00
2018-04-08T02:18:10.753Z,11.00
2018-04-08T02:20:38.302Z,10.90
2018-04-08T02:23:05.817Z,10.80
2018-04-08T02:25:33.357Z,10.80
2018-04-08T02:28:00.874Z,10.80
2018-04-08T02:30:28.381Z,10.70
2018-04-08T02:32:55.928Z,10.70
2018-04-08T02:35:23.446Z,10.70
2018-04-08T02:37:50.957Z,10.60
2018-04-08T02:40:18.505Z,10.60
2018-04-08T02:42:46.069Z,10.60
2018-04-08T02:45:13.580Z,10.60
2018-04-08T02:47:41.118Z,10.50
2018-04-08T02:50:08.697Z,10.50
2018-04-08T02:52:36.232Z,10.40
2018-04-08T02:55:03.784Z,10.40
2018-04-08T02:57:31.340Z,10.30
2018-04-08T02:59:58.896Z,10.30
2018-04-08T03:02:26.409Z,10.20
2018-04-08T03:04:53.951Z,10.20
2018-04-08T03:07:21.510Z,10.20
2018-04-08T03:09:49.104Z,10.20
2018-04-08T03:12:16.649Z,10.20
2018-04-08T03:14:44.200Z,10.10
2018-04-08T03:17:12.513Z,10.10
2018-04-08T03:19:40.021Z,10.10
2018-04-08T03:22:09.064Z,10.00
2018-04-08T03:24:36.595Z,10.00
2018-04-08T03:27:04.107Z,9.90
2018-04-08T03:29:31.628Z,9.90
2018-04-08T03:31:59.132Z,9.90
2018-04-08T03:34:28.148Z,9.90
2018-04-08T03:36:55.650Z,9.90
2018-04-08T03:39:23.188Z,10.00
2018-04-08T03:41:50.738Z,9.90
2018-04-08T03:44:18.261Z,9.80
2018-04-08T03:46:45.808Z,9.70
2018-04-08T03:49:13.354Z,9.70
2018-04-08T03:51:40.896Z,9.70
2018-04-08T03:54:08.399Z,9.60
2018-04-08T03:56:35.944Z,9.50
2018-04-08T03:59:03.484Z,9.40
2018-04-08T04:01:31.020Z,9.40
2018-04-08T04:03:58.574Z,9.40
2018-04-08T04:06:26.113Z,9.40
2018-04-08T04:08:54.385Z,9.40
2018-04-08T04:11:22.701Z,9.40
2018-04-08T04:13:50.241Z,9.40
2018-04-08T04:16:17.769Z,9.30
2018-04-08T04:18:57.200Z,9.30
2018-04-08T04:21:36.421Z,9.40
2018-04-08T04:27:10.941Z,9.40
2018-04-08T04:29:38.459Z,9.40
2018-04-08T04:32:05.992Z,9.40
2018-04-08T04:34:33.501Z,9.30
2018-04-08T04:37:01.016Z,9.20
2018-04-08T04:39:28.572Z,9.20
2018-04-08T04:41:56.879Z,9.20
2018-04-08T04:44:24.429Z,9.20
2018-04-08T04:46:51.948Z,9.20
2018-04-08T04:49:19.493Z,9.10
2018-04-08T04:51:47.041Z,9.10
2018-04-08T04:54:14.576Z,9.00
2018-04-08T04:56:42.089Z,9.00
2018-04-08T04:59:09.602Z,9.00
2018-04-08T05:01:37.116Z,9.00
2018-04-08T05:04:05.404Z,9.10
2018-04-08T05:06:33.737Z,9.10
2018-04-08T05:09:01.256Z,9.10
2018-04-08T05:11:28.799Z,9.10
2018-04-08T05:13:57.095Z,9.10
2018-04-08T05:16:24.673Z,9.00
2018-04-08T05:18:52.211Z,9.00
2018-04-08T05:21:19.731Z,9.00
2018-04-08T05:23:48.751Z,9.10
2018-04-08T05:26:16.313Z,9.10
2018-04-08T05:28:43.868Z,9.10
2018-04-08T05:31:11.394Z,9.10
2018-04-08T05:33:38.929Z,9.10
2018-04-08T05:36:06.485Z,9.20
2018-04-08T05:38:34.027Z,9.10
2018-04-08T05:41:01.585Z,8.90
2018-04-08T05:43:29.862Z,9.00
2018-04-08T05:45:57.416Z,9.00
2018-04-08T05:48:25.017Z,9.00
2018-04-08T05:50:52.543Z,9.10
2018-04-08T05:53:20.069Z,9.10
2018-04-08T05:55:47.579Z,9.10
2018-04-08T05:58:15.096Z,9.10
2018-04-08T06:00:42.630Z,9.10
2018-04-08T06:03:10.911Z,9.10
2018-04-08T06:05:39.216Z,9.10
2018-04-08T06:08:06.769Z,9.10
2018-04-08T06:10:34.279Z,9.20
2018-04-08T06:13:01.824Z,9.20
2018-04-08T06:15:29.370Z,9.20
2018-04-08T06:17:56.876Z,9.20
2018-04-08T06:20:25.153Z,9.30
2018-04-08T06:22:53.431Z,9.40
2018-04-08T06:25:21.709Z,9.40
2018-04-08T06:27:49.999Z,9.60
2018-04-08T06:30:18.382Z,9.60
2018-04-08T06:32:45.884Z,9.60
2018-04-08T06:35:13.429Z,9.60
2018-04-08T06:37:40.985Z,9.60
2018-04-08T06:40:08.510Z,9.60
2018-04-08T06:42:36.059Z,9.60
2018-04-08T06:45:03.607Z,9.70
2018-04-08T06:47:31.905Z,9.90
2018-04-08T06:49:59.449Z,9.90
2018-04-08T06:52:26.990Z,10.10
2018-04-08T06:54:54.542Z,10.20
2018-04-08T06:57:22.104Z,10.30
2018-04-08T06:59:49.668Z,10.50
2018-04-08T07:02:18.070Z,10.70
2018-04-08T07:04:45.592Z,10.70
2018-04-08T07:07:14.658Z,10.90
2018-04-08T07:09:42.218Z,10.90
2018-04-08T07:12:09.728Z,11.00
2018-04-08T07:14:38.032Z,11.20
2018-04-08T07:17:05.573Z,11.20
2018-04-08T07:19:33.098Z,11.40
2018-04-08T07:22:00.647Z,11.50
2018-04-08T07:24:28.184Z,11.60
2018-04-08T07:26:55.750Z,11.70
2018-04-08T07:29:23.271Z,11.80
2018-04-08T07:31:50.817Z,11.90
2018-04-08T07:34:18.339Z,11.90
2018-04-08T07:36:45.864Z,12.00
2018-04-08T07:39:13.420Z,12.20
2018-04-08T07:41:40.936Z,12.30
2018-04-08T07:44:08.493Z,12.40
2018-04-08T07:46:36.782Z,12.80
2018-04-08T07:49:05.115Z,13.00
2018-04-08T07:51:32.674Z,13.00
2018-04-08T07:54:00.246Z,13.30
2018-04-08T07:56:27.814Z,13.60
2018-04-08T07:58:56.140Z,13.90
2018-04-08T08:01:23.694Z,13.90
2018-04-08T08:03:51.244Z,14.10
2018-04-08T08:06:18.762Z,14.30
2018-04-08T08:08:47.821Z,14.50
2018-04-08T08:11:15.419Z,14.50
2018-04-08T08:13:42.932Z,14.70
2018-04-08T08:16:10.476Z,14.90
2018-04-08T08:18:38.056Z,15.00
2018-04-08T08:21:05.651Z,15.00
2018-04-08T08:23:33.189Z,15.10
2018-04-08T08:26:00.721Z,15.20
2018-04-08T08:28:28.236Z,15.40
2018-04-08T08:30:56.678Z,15.30
2018-04-08T08:33:24.271Z,15.30
2018-04-08T08:35:51.816Z,15.40
2018-04-08T08:38:19.390Z,15.50
2018-04-08T08:40:47.723Z,15.70
2018-04-08T08:43:15.283Z,15.70
2018-04-08T08:45:42.839Z,15.70
2018-04-08T08:48:10.360Z,15.80
2018-04-08T08:50:38.673Z,16.10
2018-04-08T08:53:06.218Z,16.00
2018-04-08T08:55:33.750Z,16.20
2018-04-08T08:58:01.304Z,16.40
2018-04-08T09:00:28.840Z,16.50
2018-04-08T09:02:56.435Z,16.90
2018-04-08T09:05:23.976Z,16.90
2018-04-08T09:07:52.274Z,17.40
2018-04-08T09:10:19.828Z,17.40
2018-04-08T09:12:47.388Z,17.30
2018-04-08T09:15:14.985Z,17.40
2018-04-08T09:17:42.561Z,17.40
2018-04-08T09:20:15.857Z,17.30
2018-04-08T09:22:49.196Z,17.20
2018-04-08T09:25:19.375Z,17.30
2018-04-08T09:27:46.884Z,17.70
2018-04-08T09:30:14.416Z,17.60
2018-04-08T09:32:41.973Z,18.10
2018-04-08T09:35:10.268Z,18.20
2018-04-08T09:37:38.551Z,18.10
2018-04-08T09:40:06.191Z,18.10
2018-04-08T09:42:34.485Z,18.40
2018-04-08T09:45:02.082Z,18.30
2018-04-08T09:47:29.657Z,18.80
2018-04-08T09:49:57.216Z,19.10
2018-04-08T09:52:24.777Z,19.00
2018-04-08T09:54:52.354Z,19.20
2018-04-08T09:57:20.678Z,19.60
2018-04-08T09:59:48.285Z,19.60
2018-04-08T10:02:31.610Z,19.40
2018-04-08T10:04:59.166Z,19.60
2018-04-08T10:07:27.504Z,19.70
2018-04-08T10:09:55.215Z,19.60
2018-04-08T10:12:22.756Z,19.60
2018-04-08T10:14:50.315Z,19.70
2018-04-08T10:17:17.837Z,19.60
2018-04-08T10:19:45.424Z,20.10
2018-04-08T10:22:12.977Z,20.20
2018-04-08T10:24:40.514Z,20.70
2018-04-08T10:27:08.038Z,20.80
2018-04-08T10:29:36.353Z,20.60
2018-04-08T10:32:03.916Z,20.50
2018-04-08T10:34:31.438Z,20.00
2018-04-08T10:36:59.000Z,20.10
2018-04-08T10:39:27.285Z,21.10
2018-04-08T10:41:54.797Z,21.00
2018-04-08T10:44:22.354Z,20.90
2018-04-08T10:46:49.988Z,21.40
2018-04-08T10:49:17.525Z,21.70
2018-04-08T10:51:45.075Z,21.40
2018-04-08T10:54:12.631Z,20.70
2018-04-08T10:56:40.931Z,20.40
2018-04-08T10:59:08.459Z,20.40
2018-04-08T11:01:36.020Z,20.70
2018-04-08T11:04:04.296Z,20.80
2018-04-08T11:06:32.579Z,20.80
2018-04-08T11:09:00.879Z,20.60
2018-04-08T11:11:28.896Z,20.60
2018-04-08T11:13:56.430Z,20.80
2018-04-08T11:16:23.980Z,20.80
2018-04-08T11:18:51.484Z,21.10
2018-04-08T11:21:19.768Z,21.00
2018-04-08T11:23:48.084Z,21.00
2018-04-08T11:26:15.636Z,21.00
2018-04-08T11:28:43.166Z,21.00
2018-04-08T11:31:11.491Z,21.10
2018-04-08T11:33:39.044Z,21.10
2018-04-08T11:36:06.585Z,21.40
2018-04-08T11:38:34.124Z,21.70
2018-04-08T11:41:01.641Z,21.90
2018-04-08T11:43:29.192Z,21.80
2018-04-08T11:45:56.756Z,22.30
2018-04-08T11:48:24.320Z,21.90
2018-04-08T11:50:51.852Z,22.20
2018-04-08T11:53:19.373Z,22.40
2018-04-08T11:55:47.644Z,22.30
2018-04-08T11:58:15.940Z,22.30
2018-04-08T12:00:43.491Z,22.20
2018-04-08T12:03:11.018Z,22.30
2018-04-08T12:05:38.553Z,22.40
2018-04-08T12:08:06.130Z,23.10
2018-04-08T12:10:33.656Z,22.80
2018-04-08T12:13:01.219Z,22.60
2018-04-08T12:15:28.793Z,22.50
2018-04-08T12:17:56.359Z,22.60
2018-04-08T12:20:23.913Z,22.30
2018-04-08T12:22:51.424Z,23.00
2018-04-08T12:25:18.943Z,23.00
2018-04-08T12:27:46.473Z,22.70
2018-04-08T12:30:14.045Z,22.80
2018-04-08T12:32:41.573Z,22.60
2018-04-08T12:35:09.126Z,22.20
2018-04-08T12:37:36.684Z,22.20
2018-04-08T12:40:04.199Z,22.70
2018-04-08T12:42:31.738Z,22.70
2018-04-08T12:44:59.258Z,23.10
2018-04-08T12:47:26.772Z,23.10
2018-04-08T12:49:54.332Z,22.90
2018-04-08T12:52:22.657Z,22.80
2018-04-08T12:54:50.185Z,22.70
2018-04-08T12:57:17.754Z,22.80
2018-04-08T12:59:45.284Z,22.60
2018-04-08T13:02:12.799Z,22.20
2018-04-08T13:04:40.352Z,22.00
2018-04-08T13:07:07.877Z,22.00
2018-04-08T13:09:35.421Z,22.10
2018-04-08T13:12:02.955Z,22.30
2018-04-08T13:14:30.492Z,22.40
2018-04-08T13:16:58.017Z,22.40
2018-04-08T13:19:26.332Z,22.40
2018-04-08T13:21:53.860Z,22.40
2018-04-08T13:24:21.387Z,22.40
2018-04-08T13:26:48.915Z,22.30
2018-04-08T13:29:16.468Z,22.60
2018-04-08T13:31:44.000Z,22.90
2018-04-08T13:34:11.517Z,23.00
2018-04-08T13:36:39.031Z,23.00
2018-04-08T13:39:06.545Z,22.90
2018-04-08T13:41:34.816Z,22.70
2018-04-08T13:44:02.335Z,22.70
2018-04-08T13:46:29.889Z,22.80
2018-04-08T13:48:57.420Z,22.80
2018-04-08T13:51:24.950Z,22.80
2018-04-08T13:53:52.484Z,22.60
2018-04-08T13:56:20.022Z,22.70
2018-04-08T13:58:47.547Z,22.90
2018-04-08T14:01:15.080Z,22.60
2018-04-08T14:03:43.398Z,22.70
2018-04-08T14:06:10.915Z,22.70
2018-04-08T14:08:38.485Z,22.60
2018-04-08T14:11:06.808Z,22.50
2018-04-08T14:13:34.330Z,22.50
2018-04-08T14:16:01.872Z,22.60
2018-04-08T14:18:29.426Z,22.70
2018-04-08T14:20:56.964Z,22.30
2018-04-08T14:23:24.473Z,22.40
2018-04-08T14:25:52.012Z,22.20
2018-04-08T14:28:19.558Z,22.40
2018-04-08T14:30:47.129Z,22.30
2018-04-08T14:33:14.680Z,22.40
2018-04-08T14:35:42.990Z,22.70
2018-04-08T14:38:10.511Z,22.70
2018-04-08T14:40:38.067Z,22.80
2018-04-08T14:43:05.632Z,22.70
2018-04-08T14:45:33.181Z,22.70
2018-04-08T14:48:01.469Z,22.60
2018-04-08T14:50:29.010Z,22.60
2018-04-08T14:52:56.637Z,22.40
2018-04-08T14:55:24.174Z,22.30
2018-04-08T14:57:51.709Z,22.30
2018-04-08T15:00:19.989Z,22.50
2018-04-08T15:02:48.483Z,22.50
2018-04-08T15:05:16.797Z,22.60
2018-04-08T15:07:44.956Z,22.50
2018-04-08T15:10:12.482Z,22.50
2018-04-08T15:12:40.788Z,22.40
2018-04-08T15:15:08.353Z,22.40
2018-04-08T15:17:35.919Z,22.60
2018-04-08T15:20:03.478Z,22.60
2018-04-08T15:22:30.983Z,22.50
2018-04-08T15:24:58.512Z,22.50
2018-04-08T15:27:26.059Z,22.50
2018-04-08T15:29:53.621Z,22.60
2018-04-08T15:32:21.176Z,22.70
2018-04-08T15:34:49.510Z,22.60
2018-04-08T15:37:17.822Z,22.50
2018-04-08T15:39:45.358Z,22.50
2018-04-08T15:42:12.899Z,22.50
2018-04-08T15:44:41.214Z,22.40
2018-04-08T15:47:08.730Z,22.30
2018-04-08T15:49:36.273Z,22.50
2018-04-08T15:52:03.843Z,22.50
2018-04-08T15:54:31.407Z,22.40
2018-04-08T15:56:58.931Z,22.40
2018-04-08T15:59:26.488Z,22.50
2018-04-08T16:01:54.046Z,22.30
2018-04-08T16:04:21.575Z,22.30
2018-04-08T16:06:49.109Z,22.40
2018-04-08T16:09:17.440Z,22.20
2018-04-08T16:11:45.005Z,22.20
2018-04-08T16:14:12.566Z,22.00
2018-04-08T16:16:40.185Z,21.90
2018-04-08T16:19:08.563Z,22.00
2018-04-08T16:21:36.127Z,21.90
2018-04-08T16:24:03.731Z,21.90
2018-04-08T16:26:31.274Z,21.90
2018-04-08T16:28:58.789Z,21.80
2018-04-08T16:31:26.332Z,21.90
2018-04-08T16:33:54.661Z,21.90
2018-04-08T16:36:22.224Z,21.80
2018-04-08T16:38:49.751Z,21.80
2018-04-08T16:41:18.036Z,21.70
2018-04-08T16:43:45.548Z,21.70
2018-04-08T16:46:13.076Z,21.70
2018-04-08T16:48:40.586Z,21.60
2018-04-08T16:51:08.902Z,21.50
2018-04-08T16:53:36.466Z,21.50
2018-04-08T16:56:04.025Z,21.50
2018-04-08T16:58:31.575Z,21.50
2018-04-08T17:00:59.092Z,21.40
2018-04-08T17:03:27.368Z,21.20
2018-04-08T17:05:55.697Z,21.10
2018-04-08T17:08:23.255Z,21.10
2018-04-08T17:10:50.802Z,21.00
2018-04-08T17:13:18.324Z,21.00
2018-04-08T17:15:45.835Z,20.90
2018-04-08T17:18:13.374Z,20.80
2018-04-08T17:20:40.926Z,20.80
2018-04-08T17:23:08.473Z,20.80
2018-04-08T17:25:36.033Z,20.70
2018-04-08T17:28:03.584Z,20.60
2018-04-08T17:30:31.911Z,20.50
2018-04-08T17:32:59.478Z,20.50
2018-04-08T17:35:26.994Z,20.40
2018-04-08T17:37:54.540Z,20.40
2018-04-08T17:40:22.837Z,20.20
2018-04-08T17:42:50.393Z,20.20
2018-04-08T17:45:17.995Z,20.10
2018-04-08T17:47:45.543Z,20.10
2018-04-08T17:50:13.105Z,20.00
2018-04-08T17:52:40.640Z,19.90
2018-04-08T17:55:08.161Z,19.80
2018-04-08T17:57:36.469Z,19.50
2018-04-08T18:00:04.041Z,19.50
2018-04-08T18:02:32.325Z,19.40
2018-04-08T18:04:59.881Z,19.20
2018-04-08T18:07:27.397Z,19.00
2018-04-08T18:09:54.910Z,18.90
2018-04-08T18:12:22.447Z,18.70
2018-04-08T18:14:49.976Z,18.60
2018-04-08T18:17:18.302Z,18.40
2018-04-08T18:19:45.839Z,18.40
2018-04-08T18:22:13.384Z,18.30
2018-04-08T18:24:40.904Z,18.20
2018-04-08T18:27:08.415Z,18.10
2018-04-08T18:29:36.704Z,17.90
2018-04-08T18:32:04.232Z,17.90
2018-04-08T18:34:31.762Z,17.80
2018-04-08T18:36:59.317Z,17.80
2018-04-08T18:39:26.888Z,17.70
2018-04-08T18:41:55.181Z,17.60
2018-04-08T18:44:22.717Z,17.60
2018-04-08T18:46:50.244Z,17.40
2018-04-08T18:49:17.817Z,17.30
2018-04-08T18:51:46.252Z,17.30
2018-04-08T18:54:13.815Z,17.20
2018-04-08T18:56:41.380Z,17.30
2018-04-08T18:59:08.948Z,17.30
2018-04-08T19:01:36.462Z,17.30
2018-04-08T19:04:04.779Z,17.10
2018-04-08T19:06:32.338Z,17.10
2018-04-08T19:08:59.862Z,17.10
2018-04-08T19:11:27.430Z,17.10
2018-04-08T19:13:54.992Z,17.10
2018-04-08T19:16:22.546Z,16.90
2018-04-08T19:18:50.119Z,16.80
2018-04-08T19:21:17.892Z,16.70
2018-04-08T19:23:48.225Z,16.60
2018-04-08T19:26:15.749Z,16.60
2018-04-08T19:28:43.292Z,16.50
2018-04-08T19:31:10.857Z,16.40
2018-04-08T19:33:38.418Z,16.40
2018-04-08T19:36:06.002Z,16.30
2018-04-08T19:38:33.536Z,16.20
2018-04-08T19:41:01.078Z,16.10
2018-04-08T19:43:29.396Z,16.10
2018-04-08T19:45:57.002Z,16.10
2018-04-08T19:48:24.526Z,16.00
2018-04-08T19:50:52.078Z,16.00
2018-04-08T19:53:19.604Z,16.00
2018-04-08T19:55:47.934Z,15.90
2018-04-08T19:58:15.466Z,15.90
2018-04-08T20:00:43.006Z,15.80
2018-04-08T20:03:11.329Z,15.70
2018-04-08T20:05:38.866Z,15.70
2018-04-08T20:08:06.386Z,15.70
2018-04-08T20:10:34.705Z,15.50
2018-04-08T20:13:02.233Z,15.50
2018-04-08T20:15:29.838Z,15.40
2018-04-08T20:17:58.127Z,15.30
2018-04-08T20:20:25.677Z,15.20
2018-04-08T20:22:53.247Z,15.10
2018-04-08T20:25:20.769Z,15.10
2018-04-08T20:27:48.297Z,15.10
2018-04-08T20:30:16.610Z,15.00
2018-04-08T20:32:44.169Z,15.00
2018-04-08T20:35:11.729Z,14.90
2018-04-08T20:37:39.254Z,14.80
2018-04-08T20:40:06.786Z,14.80
2018-04-08T20:42:34.349Z,14.80
2018-04-08T20:45:01.884Z,14.70
2018-04-08T20:47:29.400Z,14.60
2018-04-08T20:49:56.923Z,14.60
2018-04-08T20:52:24.485Z,14.60
2018-04-08T20:54:52.885Z,14.40
2018-04-08T20:57:20.465Z,14.30
2018-04-08T20:59:48.009Z,14.30
2018-04-08T21:02:15.589Z,14.20
2018-04-08T21:04:43.123Z,14.10
2018-04-08T21:07:10.645Z,14.00
2018-04-08T21:09:38.186Z,14.00
2018-04-08T21:12:05.782Z,14.10
2018-04-08T21:14:33.292Z,14.00
2018-04-08T21:17:00.812Z,13.90
2018-04-08T21:19:28.368Z,13.90
2018-04-08T21:21:55.918Z,13.80
2018-04-08T21:24:23.497Z,13.70
2018-04-08T21:26:51.063Z,13.70
2018-04-08T21:29:18.583Z,13.60
2018-04-08T21:31:46.128Z,13.60
2018-04-08T21:34:13.678Z,13.50
2018-04-08T21:36:41.208Z,13.50
2018-04-08T21:39:08.763Z,13.40
2018-04-08T21:41:36.327Z,13.40
2018-04-08T21:44:03.895Z,13.40
2018-04-08T21:46:31.420Z,13.30
2018-04-08T21:48:58.966Z,13.10
2018-04-08T21:51:26.499Z,13.00
2018-04-08T21:53:54.037Z,12.80
2018-04-08T21:56:21.586Z,12.80
2018-04-08T21:58:49.142Z,12.80
2018-04-08T22:01:16.666Z,12.80
2018-04-08T22:03:44.222Z,12.80
2018-04-08T22:06:12.504Z,12.80
2018-04-08T22:08:40.029Z,12.80
2018-04-08T22:11:09.061Z,12.60
2018-04-08T22:13:36.610Z,12.60
2018-04-08T22:16:04.169Z,12.60
2018-04-08T22:18:31.708Z,12.40
2018-04-08T22:21:00.768Z,12.40
2018-04-08T22:23:28.317Z,12.40
2018-04-08T22:25:55.873Z,12.40
2018-04-08T22:28:23.424Z,12.30
2018-04-08T22:30:50.974Z,12.20
2018-04-08T22:33:18.525Z,12.20
2018-04-08T22:35:46.049Z,12.20
2018-04-08T22:38:13.577Z,12.20
2018-04-08T22:40:41.079Z,12.10
2018-04-08T22:43:08.607Z,12.10
2018-04-08T22:45:36.158Z,12.00
2018-04-08T22:48:03.738Z,11.90
2018-04-08T22:50:31.221Z,11.90
2018-04-08T22:52:59.547Z,11.90
2018-04-08T22:55:27.072Z,11.90
2018-04-08T22:57:54.596Z,11.80
2018-04-08T23:00:25.405Z,11.50
2018-04-08T23:02:52.952Z,11.50
2018-04-08T23:05:20.497Z,11.50
2018-04-08T23:07:48.017Z,11.50
2018-04-08T23:10:15.559Z,11.50
2018-04-08T23:12:43.077Z,11.50
2018-04-08T23:15:10.617Z,11.60
2018-04-08T23:17:38.161Z,11.50
2018-04-08T23:20:06.467Z,11.30
2018-04-08T23:22:33.980Z,11.30
2018-04-08T23:25:01.533Z,11.30
2018-04-08T23:27:29.084Z,11.40
2018-04-08T23:29:57.410Z,11.50
2018-04-08T23:32:24.965Z,11.40
2018-04-08T23:34:52.518Z,11.50
2018-04-08T23:37:20.045Z,11.50
2018-04-08T23:39:47.590Z,11.40
2018-04-08T23:42:15.129Z,11.40
2018-04-08T23:44:42.685Z,11.30
2018-04-08T23:47:10.206Z,11.30
2018-04-08T23:49:37.764Z,11.20
2018-04-08T23:52:05.315Z,11.20
2018-04-08T23:54:32.841Z,11.10
2018-04-08T23:57:00.363Z,11.10
2018-04-08T23:59:27.918Z,11.10
